createdAt,value
2019-05-10T00:01:10.590Z,99802.36
2019-05-10T00:03:59.434Z,99797.44
2019-05-10T00:06:48.572Z,99802.18
2019-05-10T00:09:18.882Z,99800.78
2019-05-10T00:12:15.318Z,99802.94
2019-05-10T00:14:52.059Z,99800.74
2019-05-10T00:17:23.902Z,99805.53
2019-05-10T00:19:55.137Z,99802.41
2019-05-10T00:22:26.452Z,99805.49
2019-05-10T00:25:04.432Z,99812.91
2019-05-10T00:27:30.820Z,99809.33
2019-05-10T00:30:02.127Z,99807.53
2019-05-10T00:32:34.817Z,99811.95
2019-05-10T00:35:06.582Z,99815.05
2019-05-10T00:37:37.867Z,99808.43
2019-05-10T00:40:09.260Z,99808.45
2019-05-10T00:42:40.669Z,99814.62
2019-05-10T00:45:12.023Z,99812.82
2019-05-10T00:47:43.299Z,99810.55
2019-05-10T00:50:14.663Z,99819.34
2019-05-10T00:52:45.967Z,99821.06
2019-05-10T00:55:19.251Z,99822.34
2019-05-10T00:57:50.433Z,99826.62
2019-05-10T01:00:22.215Z,99823.45
2019-05-10T01:02:53.422Z,99826.06
2019-05-10T01:05:24.861Z,99830.41
2019-05-10T01:07:56.221Z,99832.14
2019-05-10T01:10:27.533Z,99835.22
2019-05-10T01:12:58.903Z,99833.41
2019-05-10T01:15:30.133Z,99837.38
2019-05-10T01:18:01.510Z,99837.78
2019-05-10T01:20:32.791Z,99836.48
2019-05-10T01:23:04.046Z,99840.50
2019-05-10T01:25:36.005Z,99836.11
2019-05-10T01:28:07.393Z,99834.88
2019-05-10T01:30:38.741Z,99838.42
2019-05-10T01:33:10.057Z,99843.23
2019-05-10T01:35:41.351Z,99848.49
2019-05-10T01:38:12.561Z,99841.00
2019-05-10T01:40:43.845Z,99849.00
2019-05-10T01:43:15.078Z,99845.50
2019-05-10T01:45:46.344Z,99849.05
2019-05-10T01:48:17.584Z,99845.48
2019-05-10T01:50:48.911Z,99847.70
2019-05-10T01:53:20.212Z,99849.00
2019-05-10T01:55:52.932Z,99849.00
2019-05-10T01:58:25.593Z,99852.52
2019-05-10T02:00:56.880Z,99850.38
2019-05-10T02:03:28.198Z,99857.48
2019-05-10T02:06:00.410Z,99857.01
2019-05-10T02:08:31.676Z,99860.08
2019-05-10T02:11:03.318Z,99857.52
2019-05-10T02:13:34.630Z,99857.96
2019-05-10T02:16:05.979Z,99865.98
2019-05-10T02:18:37.357Z,99867.75
2019-05-10T02:21:08.625Z,99873.92
2019-05-10T02:23:39.851Z,99874.77
2019-05-10T02:26:11.179Z,99885.77
2019-05-10T02:28:42.484Z,99880.81
2019-05-10T02:31:13.756Z,99882.90
2019-05-10T02:33:45.074Z,99888.13
2019-05-10T02:36:16.376Z,99885.34
2019-05-10T02:38:47.747Z,99887.55
2019-05-10T02:41:18.991Z,99894.06
2019-05-10T02:43:50.279Z,99905.01
2019-05-10T02:46:21.613Z,99911.14
2019-05-10T02:48:53.040Z,99908.02
2019-05-10T02:51:24.297Z,99909.73
2019-05-10T02:53:55.493Z,99914.93
2019-05-10T02:56:30.855Z,99917.87
2019-05-10T02:59:00.213Z,99922.65
2019-05-10T03:01:31.738Z,99927.84
2019-05-10T03:04:03.104Z,99932.11
2019-05-10T03:06:38.343Z,99930.56
2019-05-10T03:09:09.898Z,99933.98
2019-05-10T03:11:47.464Z,99936.56
2019-05-10T03:14:19.826Z,99946.55
2019-05-10T03:16:52.334Z,99938.01
2019-05-10T03:19:24.003Z,99945.91
2019-05-10T03:22:06.168Z,99947.61
2019-05-10T03:24:38.506Z,99950.73
2019-05-10T03:27:09.826Z,99946.70
2019-05-10T03:29:41.267Z,99954.21
2019-05-10T03:32:12.752Z,99955.50
2019-05-10T03:34:44.001Z,99957.23
2019-05-10T03:37:15.334Z,99959.91
2019-05-10T03:39:46.555Z,99954.18
2019-05-10T03:42:18.958Z,99962.14
2019-05-10T03:44:50.177Z,99959.47
2019-05-10T03:47:21.404Z,99964.27
2019-05-10T03:49:52.672Z,99965.61
2019-05-10T03:52:23.909Z,99976.15
2019-05-10T03:54:55.185Z,99985.87
2019-05-10T03:57:26.442Z,99973.05
2019-05-10T03:59:57.792Z,99975.21
2019-05-10T04:02:29.057Z,99978.72
2019-05-10T04:05:00.360Z,99981.33
2019-05-10T04:07:32.699Z,99987.00
2019-05-10T04:10:03.960Z,99989.56
2019-05-10T04:12:35.690Z,99995.30
2019-05-10T04:15:08.227Z,99988.11
2019-05-10T04:17:39.504Z,99987.63
2019-05-10T04:20:10.940Z,99999.99
2019-05-10T04:22:42.232Z,99998.19
2019-05-10T04:25:13.596Z,100008.72
2019-05-10T04:27:44.934Z,100014.38
2019-05-10T04:30:16.574Z,100007.14
2019-05-10T04:32:47.845Z,100018.92
2019-05-10T04:35:19.175Z,100022.21
2019-05-10T04:37:50.661Z,100024.77
2019-05-10T04:40:21.992Z,100028.21
2019-05-10T04:42:53.279Z,100039.59
2019-05-10T04:45:24.715Z,100044.88
2019-05-10T04:47:55.999Z,100042.66
2019-05-10T04:50:27.258Z,100044.35
2019-05-10T04:52:58.518Z,100045.59
2019-05-10T04:55:29.853Z,100046.01
2019-05-10T04:58:01.164Z,100048.65
2019-05-10T05:00:32.462Z,100050.45
2019-05-10T05:03:05.370Z,100049.93
2019-05-10T05:05:36.672Z,100057.32
2019-05-10T05:08:07.938Z,100052.49
2019-05-10T05:10:39.286Z,100061.77
2019-05-10T05:13:10.549Z,100062.22
2019-05-10T05:15:41.857Z,100061.39
2019-05-10T05:18:13.219Z,100070.67
2019-05-10T05:20:44.511Z,100068.06
2019-05-10T05:23:15.804Z,100064.19
2019-05-10T05:25:47.071Z,100070.78
2019-05-10T05:28:23.040Z,100072.25
2019-05-10T05:30:51.343Z,100080.59
2019-05-10T05:33:22.676Z,100079.31
2019-05-10T05:35:53.975Z,100087.72
2019-05-10T05:38:25.279Z,100085.03
2019-05-10T05:40:56.577Z,100085.87
2019-05-10T05:43:27.893Z,100090.77
2019-05-10T05:45:59.125Z,100089.53
2019-05-10T05:48:40.115Z,100090.81
2019-05-10T05:51:03.424Z,100100.58
2019-05-10T05:53:35.867Z,100095.30
2019-05-10T05:56:12.635Z,100101.97
2019-05-10T05:58:44.782Z,100098.05
2019-05-10T06:01:24.935Z,100107.78
2019-05-10T06:03:46.825Z,100106.91
2019-05-10T06:06:21.968Z,100102.54
2019-05-10T06:08:54.590Z,100110.12
2019-05-10T06:11:29.654Z,100116.30
2019-05-10T06:14:03.711Z,100106.58
2019-05-10T06:16:31.263Z,100113.62
2019-05-10T06:19:02.561Z,100117.14
2019-05-10T06:21:33.847Z,100122.00
2019-05-10T06:24:07.558Z,100123.28
2019-05-10T06:26:38.059Z,100124.61
2019-05-10T06:29:16.139Z,100125.44
2019-05-10T06:31:42.297Z,100140.45
2019-05-10T06:34:13.618Z,100136.00
2019-05-10T06:36:45.087Z,100142.22
2019-05-10T06:39:16.377Z,100138.27
2019-05-10T06:41:50.243Z,100141.84
2019-05-10T06:44:24.893Z,100141.95
2019-05-10T06:46:53.885Z,100149.50
2019-05-10T06:49:25.175Z,100152.22
2019-05-10T06:51:56.482Z,100165.01
2019-05-10T06:54:27.785Z,100154.06
2019-05-10T06:56:59.192Z,100164.67
2019-05-10T06:59:30.570Z,100150.11
2019-05-10T07:02:01.889Z,100157.55
2019-05-10T07:04:37.922Z,100164.56
2019-05-10T07:07:09.704Z,100160.59
2019-05-10T07:10:01.418Z,100156.27
2019-05-10T07:12:15.321Z,100156.38
2019-05-10T07:14:46.410Z,100156.97
2019-05-10T07:17:18.033Z,100155.69
2019-05-10T07:19:53.578Z,100157.58
2019-05-10T07:22:27.114Z,100168.59
2019-05-10T07:24:57.154Z,100168.67
2019-05-10T07:27:29.154Z,100164.33
2019-05-10T07:30:00.470Z,100162.25
2019-05-10T07:32:31.735Z,100167.20
2019-05-10T07:35:03.193Z,100159.83
2019-05-10T07:37:34.501Z,100166.16
2019-05-10T07:40:06.391Z,100159.36
2019-05-10T07:42:39.649Z,100172.61
2019-05-10T07:45:10.910Z,100164.30
2019-05-10T07:47:42.295Z,100163.58
2019-05-10T07:50:13.678Z,100165.52
2019-05-10T07:52:45.668Z,100172.73
2019-05-10T07:55:28.086Z,100175.02
2019-05-10T07:57:50.325Z,100176.94
2019-05-10T08:00:25.326Z,100187.09
2019-05-10T08:03:06.390Z,100179.65
2019-05-10T08:05:29.456Z,100184.55
2019-05-10T08:08:00.947Z,100179.36
2019-05-10T08:10:32.266Z,100184.83
2019-05-10T08:13:03.775Z,100183.73
2019-05-10T08:15:35.301Z,100185.75
2019-05-10T08:18:09.613Z,100186.23
2019-05-10T08:20:49.335Z,100188.20
2019-05-10T08:23:17.850Z,100191.88
2019-05-10T08:25:47.195Z,100197.34
2019-05-10T08:28:18.636Z,100206.22
2019-05-10T08:30:53.467Z,100198.30
2019-05-10T08:33:23.020Z,100195.81
2019-05-10T08:36:00.511Z,100202.20
2019-05-10T08:38:28.203Z,100189.18
2019-05-10T08:40:59.508Z,100206.19
2019-05-10T08:43:38.872Z,100196.56
2019-05-10T08:46:03.799Z,100204.02
2019-05-10T08:48:38.203Z,100195.23
2019-05-10T08:51:08.066Z,100210.28
2019-05-10T08:53:41.891Z,100207.70
2019-05-10T08:56:13.693Z,100213.05
2019-05-10T08:58:45.227Z,100213.98
2019-05-10T09:01:26.793Z,100218.86
2019-05-10T09:03:55.611Z,100225.52
2019-05-10T09:06:22.599Z,100226.84
2019-05-10T09:09:01.831Z,100228.61
2019-05-10T09:11:26.904Z,100222.92
2019-05-10T09:13:58.368Z,100232.31
2019-05-10T09:16:39.355Z,100235.47
2019-05-10T09:19:02.744Z,100229.00
2019-05-10T09:21:34.515Z,100246.00
2019-05-10T09:24:06.576Z,100239.02
2019-05-10T09:26:38.077Z,100240.91
2019-05-10T09:29:09.349Z,100256.95
2019-05-10T09:31:45.894Z,100242.88
2019-05-10T09:34:13.539Z,100246.99
2019-05-10T09:36:46.970Z,100250.57
2019-05-10T09:39:21.771Z,100254.58
2019-05-10T09:41:52.758Z,100258.11
2019-05-10T09:44:23.767Z,100258.92
2019-05-10T09:46:55.060Z,100269.89
2019-05-10T09:49:27.444Z,100264.88
2019-05-10T09:51:58.727Z,100271.36
2019-05-10T09:54:33.544Z,100273.02
2019-05-10T09:57:03.077Z,100269.82
2019-05-10T09:59:34.328Z,100274.22
2019-05-10T10:02:14.660Z,100277.38
2019-05-10T10:04:38.688Z,100281.41
2019-05-10T10:07:09.981Z,100277.05
2019-05-10T10:09:44.667Z,100285.84
2019-05-10T10:12:14.316Z,100288.48
2019-05-10T10:14:47.297Z,100292.89
2019-05-10T10:17:20.594Z,100306.08
2019-05-10T10:19:51.724Z,100311.34
2019-05-10T10:22:22.990Z,100305.59
2019-05-10T10:24:56.833Z,100304.18
2019-05-10T10:27:34.225Z,100304.15
2019-05-10T10:30:00.165Z,100317.76
2019-05-10T10:32:34.821Z,100314.63
2019-05-10T10:35:04.597Z,100312.84
2019-05-10T10:37:37.955Z,100334.08
2019-05-10T10:40:09.183Z,100319.86
2019-05-10T10:42:40.519Z,100327.03
2019-05-10T10:45:12.016Z,100326.55
2019-05-10T10:47:43.584Z,100327.58
2019-05-10T10:50:17.208Z,100330.02
2019-05-10T10:52:48.736Z,100327.20
2019-05-10T10:55:19.998Z,100325.63
2019-05-10T10:57:51.313Z,100334.20
2019-05-10T11:00:33.012Z,100335.23
2019-05-10T11:03:05.770Z,100339.95
2019-05-10T11:05:37.080Z,100338.63
2019-05-10T11:08:10.994Z,100339.11
2019-05-10T11:10:43.019Z,100333.91
2019-05-10T11:13:23.729Z,100341.77
2019-05-10T11:15:48.419Z,100341.67
2019-05-10T11:18:21.648Z,100341.62
2019-05-10T11:20:54.075Z,100343.88
2019-05-10T11:23:34.211Z,100341.59
2019-05-10T11:25:58.514Z,100343.55
2019-05-10T11:28:38.481Z,100346.98
2019-05-10T11:31:02.962Z,100351.92
2019-05-10T11:33:34.179Z,100346.23
2019-05-10T11:36:08.681Z,100344.18
2019-05-10T11:38:38.466Z,100353.06
2019-05-10T11:41:13.617Z,100362.11
2019-05-10T11:43:42.724Z,100359.09
2019-05-10T11:46:14.052Z,100344.17
2019-05-10T11:48:45.291Z,100359.89
2019-05-10T11:51:17.606Z,100357.55
2019-05-10T11:53:55.498Z,100364.27
2019-05-10T11:56:27.376Z,100358.17
2019-05-10T11:58:56.046Z,100370.91
2019-05-10T12:01:27.295Z,100358.03
2019-05-10T12:03:58.662Z,100375.28
2019-05-10T12:06:31.987Z,100382.87
2019-05-10T12:09:04.736Z,100390.43
2019-05-10T12:11:43.822Z,100368.95
2019-05-10T12:14:13.601Z,100377.13
2019-05-10T12:16:42.348Z,100390.22
2019-05-10T12:19:19.943Z,100383.73
2019-05-10T12:21:46.675Z,100402.83
2019-05-10T12:24:39.027Z,100407.18
2019-05-10T12:27:14.424Z,100403.59
2019-05-10T12:29:24.070Z,100412.14
2019-05-10T12:31:56.975Z,100399.09
2019-05-10T12:34:30.979Z,100403.13
2019-05-10T12:37:03.777Z,100401.52
2019-05-10T12:39:34.519Z,100401.37
2019-05-10T12:42:05.815Z,100398.59
2019-05-10T12:44:38.889Z,100409.14
2019-05-10T12:47:11.392Z,100414.45
2019-05-10T12:49:42.708Z,100412.77
2019-05-10T12:52:16.081Z,100414.20
2019-05-10T12:54:46.968Z,100415.59
2019-05-10T12:57:18.259Z,100417.05
2019-05-10T12:59:49.585Z,100421.31
2019-05-10T13:02:20.913Z,100414.03
2019-05-10T13:04:52.872Z,100419.17
2019-05-10T13:07:25.211Z,100413.91
2019-05-10T13:10:03.864Z,100414.82
2019-05-10T13:12:29.516Z,100420.69
2019-05-10T13:15:00.795Z,100428.92
2019-05-10T13:17:32.099Z,100427.59
2019-05-10T13:20:03.516Z,100437.16
2019-05-10T13:22:37.783Z,100428.65
2019-05-10T13:25:07.879Z,100447.34
2019-05-10T13:27:40.298Z,100441.62
2019-05-10T13:30:12.752Z,100436.55
2019-05-10T13:32:44.078Z,100444.64
2019-05-10T13:35:16.387Z,100446.13
2019-05-10T13:37:47.794Z,100449.57
2019-05-10T13:40:19.257Z,100450.66
2019-05-10T13:42:50.532Z,100442.98
2019-05-10T13:45:21.994Z,100444.95
2019-05-10T13:47:53.286Z,100448.74
2019-05-10T13:50:24.609Z,100448.07
2019-05-10T13:52:55.961Z,100453.14
2019-05-10T13:55:27.261Z,100449.58
2019-05-10T13:57:58.581Z,100452.80
2019-05-10T14:00:34.407Z,100452.01
2019-05-10T14:03:04.832Z,100459.27
2019-05-10T14:05:39.785Z,100460.26
2019-05-10T14:08:09.627Z,100442.62
2019-05-10T14:10:40.926Z,100448.59
2019-05-10T14:13:16.224Z,100459.47
2019-05-10T14:15:45.156Z,100458.13
2019-05-10T14:18:16.404Z,100458.55
2019-05-10T14:20:47.743Z,100454.52
2019-05-10T14:23:18.995Z,100464.67
2019-05-10T14:25:50.301Z,100458.84
2019-05-10T14:28:22.579Z,100459.20
2019-05-10T14:30:57.414Z,100463.51
2019-05-10T14:33:26.837Z,100475.34
2019-05-10T14:36:00.887Z,100486.29
2019-05-10T14:38:31.130Z,100479.50
2019-05-10T14:41:10.209Z,100486.17
2019-05-10T14:43:35.494Z,100483.09
2019-05-10T14:46:13.558Z,100485.73
2019-05-10T14:48:39.801Z,100488.55
2019-05-10T14:51:13.615Z,100491.52
2019-05-10T14:53:44.110Z,100488.76
2019-05-10T14:56:15.461Z,100492.70
2019-05-10T14:58:46.773Z,100496.88
2019-05-10T15:01:18.180Z,100494.17
2019-05-10T15:03:49.633Z,100492.91
2019-05-10T15:06:20.871Z,100494.72
2019-05-10T15:08:52.311Z,100501.45
2019-05-10T15:11:26.529Z,100491.59
2019-05-10T15:13:57.261Z,100494.30
2019-05-10T15:16:30.862Z,100502.66
2019-05-10T15:19:02.405Z,100504.70
2019-05-10T15:21:34.632Z,100504.27
2019-05-10T15:24:06.256Z,100509.36
2019-05-10T15:26:43.735Z,100514.40
2019-05-10T15:29:14.870Z,100511.65
2019-05-10T15:31:43.549Z,100515.56
2019-05-10T15:34:14.853Z,100522.03
2019-05-10T15:36:46.216Z,100520.05
2019-05-10T15:39:17.519Z,100528.55
2019-05-10T15:41:53.506Z,100533.59
2019-05-10T15:44:30.155Z,100542.67
2019-05-10T15:46:55.809Z,100538.70
2019-05-10T15:49:27.118Z,100543.98
2019-05-10T15:52:16.291Z,100547.66
2019-05-10T15:54:31.471Z,100544.68
2019-05-10T15:57:02.810Z,100557.34
2019-05-10T15:59:34.125Z,100554.06
2019-05-10T16:02:05.640Z,100559.75
2019-05-10T16:04:36.926Z,100567.17
2019-05-10T16:07:09.256Z,100562.54
2019-05-10T16:09:41.540Z,100566.09
2019-05-10T16:12:13.127Z,100568.87
2019-05-10T16:14:45.756Z,100574.27
2019-05-10T16:17:23.351Z,100576.55
2019-05-10T16:19:59.707Z,100572.75
2019-05-10T16:22:30.335Z,100583.39
2019-05-10T16:25:01.355Z,100577.61
2019-05-10T16:27:33.858Z,100587.38
2019-05-10T16:30:05.106Z,100588.17
2019-05-10T16:32:36.456Z,100594.69
2019-05-10T16:35:12.793Z,100601.03
2019-05-10T16:37:40.811Z,100604.73
2019-05-10T16:40:13.609Z,100601.45
2019-05-10T16:42:47.873Z,100597.82
2019-05-10T16:45:19.429Z,100604.78
2019-05-10T16:47:50.775Z,100604.17
2019-05-10T16:50:26.117Z,100607.92
2019-05-10T16:52:59.443Z,100611.22
2019-05-10T16:55:28.087Z,100620.72
2019-05-10T16:57:59.356Z,100614.41
2019-05-10T17:00:30.640Z,100617.47
2019-05-10T17:03:01.904Z,100619.52
2019-05-10T17:05:33.309Z,100625.02
2019-05-10T17:08:04.564Z,100623.87
2019-05-10T17:10:35.980Z,100632.17
2019-05-10T17:13:07.408Z,100634.83
2019-05-10T17:15:41.693Z,100632.95
2019-05-10T17:18:17.802Z,100640.34
2019-05-10T17:20:50.856Z,100644.55
2019-05-10T17:23:18.948Z,100653.78
2019-05-10T17:25:50.226Z,100655.81
2019-05-10T17:28:21.561Z,100654.84
2019-05-10T17:30:52.798Z,100663.16
2019-05-10T17:33:24.210Z,100664.36
2019-05-10T17:36:07.572Z,100662.16
2019-05-10T17:38:31.619Z,100667.88
2019-05-10T17:41:02.550Z,100667.81
2019-05-10T17:43:33.891Z,100670.89
2019-05-10T17:46:05.377Z,100671.80
2019-05-10T17:48:40.869Z,100674.70
2019-05-10T17:51:09.754Z,100674.53
2019-05-10T17:53:41.009Z,100676.20
2019-05-10T17:56:12.470Z,100677.49
2019-05-10T17:58:43.854Z,100677.49
2019-05-10T18:01:15.177Z,100670.86
2019-05-10T18:03:46.491Z,100674.84
2019-05-10T18:06:23.953Z,100680.08
2019-05-10T18:08:50.864Z,100684.51
2019-05-10T18:11:22.224Z,100684.05
2019-05-10T18:13:53.649Z,100685.34
2019-05-10T18:16:25.629Z,100687.09
2019-05-10T18:18:56.968Z,100691.03
2019-05-10T18:21:28.378Z,100684.37
2019-05-10T18:23:59.860Z,100690.02
2019-05-10T18:26:34.096Z,100690.82
2019-05-10T18:29:04.172Z,100695.22
2019-05-10T18:31:35.533Z,100700.94
2019-05-10T18:34:06.855Z,100695.14
2019-05-10T18:36:50.936Z,100696.85
2019-05-10T18:39:15.535Z,100695.95
2019-05-10T18:41:46.504Z,100701.17
2019-05-10T18:44:17.158Z,100706.86
2019-05-10T18:46:48.408Z,100695.66
2019-05-10T18:49:19.727Z,100696.48
2019-05-10T18:51:50.975Z,100695.09
2019-05-10T18:54:22.314Z,100697.28
2019-05-10T18:56:53.625Z,100699.90
2019-05-10T18:59:24.897Z,100697.67
2019-05-10T19:01:56.153Z,100702.06
2019-05-10T19:04:27.473Z,100707.33
2019-05-10T19:07:09.244Z,100708.08
2019-05-10T19:09:32.017Z,100716.83
2019-05-10T19:12:03.530Z,100727.24
2019-05-10T19:14:35.139Z,100731.02
2019-05-10T19:17:09.429Z,100732.23
2019-05-10T19:19:42.163Z,100735.93
2019-05-10T19:22:12.550Z,100737.96
2019-05-10T19:24:43.955Z,100742.06
2019-05-10T19:27:15.315Z,100743.81
2019-05-10T19:29:48.024Z,100749.23
2019-05-10T19:32:20.296Z,100743.59
2019-05-10T19:34:57.325Z,100741.14
2019-05-10T19:37:31.368Z,100740.44
2019-05-10T19:39:57.851Z,100744.15
2019-05-10T19:42:31.611Z,100738.18
2019-05-10T19:45:02.177Z,100744.34
2019-05-10T19:47:34.772Z,100743.02
2019-05-10T19:50:06.441Z,100745.07
2019-05-10T19:52:37.748Z,100751.96
2019-05-10T19:55:13.203Z,100754.98
2019-05-10T19:57:42.499Z,100751.38
2019-05-10T20:00:13.788Z,100759.22
2019-05-10T20:02:45.087Z,100761.69
2019-05-10T20:05:16.424Z,100773.45
2019-05-10T20:07:47.834Z,100768.25
2019-05-10T20:10:19.193Z,100776.50
2019-05-10T20:12:50.509Z,100771.03
2019-05-10T20:15:21.805Z,100772.25
2019-05-10T20:17:53.152Z,100774.84
2019-05-10T20:20:24.502Z,100773.58
2019-05-10T20:22:55.877Z,100772.30
2019-05-10T20:25:27.303Z,100770.61
2019-05-10T20:27:58.800Z,100775.91
2019-05-10T20:30:30.241Z,100774.99
2019-05-10T20:33:01.578Z,100772.30
2019-05-10T20:35:33.015Z,100772.76
2019-05-10T20:38:04.480Z,100769.34
2019-05-10T20:40:37.297Z,100772.03
2019-05-10T20:43:08.789Z,100772.53
2019-05-10T20:45:40.091Z,100773.54
2019-05-10T20:48:11.334Z,100766.06
2019-05-10T20:50:42.746Z,100772.27
2019-05-10T20:53:14.089Z,100774.05
2019-05-10T20:55:45.413Z,100771.84
2019-05-10T20:58:16.787Z,100773.69
2019-05-10T21:00:48.169Z,100775.92
2019-05-10T21:03:19.489Z,100779.11
2019-05-10T21:05:50.773Z,100778.24
2019-05-10T21:08:22.044Z,100775.23
2019-05-10T21:10:53.393Z,100772.63
2019-05-10T21:13:24.769Z,100769.16
2019-05-10T21:15:56.057Z,100774.09
2019-05-10T21:18:27.492Z,100779.42
2019-05-10T21:20:58.769Z,100775.92
2019-05-10T21:23:30.036Z,100784.27
2019-05-10T21:26:01.350Z,100786.50
2019-05-10T21:28:33.018Z,100786.41
2019-05-10T21:31:04.365Z,100792.11
2019-05-10T21:33:35.684Z,100803.55
2019-05-10T21:36:06.994Z,100804.38
2019-05-10T21:38:41.476Z,100810.95
2019-05-10T21:41:11.313Z,100822.80
2019-05-10T21:43:42.567Z,100822.26
2019-05-10T21:46:13.911Z,100818.66
2019-05-10T21:48:45.182Z,100813.31
2019-05-10T21:51:16.464Z,100822.11
2019-05-10T21:53:47.730Z,100822.05
2019-05-10T21:56:19.033Z,100823.30
2019-05-10T21:58:50.332Z,100823.25
2019-05-10T22:01:21.695Z,100820.55
2019-05-10T22:03:52.977Z,100822.23
2019-05-10T22:06:24.252Z,100826.56
2019-05-10T22:08:55.531Z,100822.95
2019-05-10T22:11:26.840Z,100822.08
2019-05-10T22:13:59.238Z,100811.87
2019-05-10T22:16:30.548Z,100813.55
2019-05-10T22:19:03.117Z,100821.48
2019-05-10T22:21:34.420Z,100830.24
2019-05-10T22:24:05.844Z,100831.92
2019-05-10T22:26:37.186Z,100833.64
2019-05-10T22:29:08.438Z,100840.25
2019-05-10T22:31:39.759Z,100832.19
2019-05-10T22:34:12.016Z,100833.87
2019-05-10T22:36:43.378Z,100839.52
2019-05-10T22:39:14.678Z,100835.03
2019-05-10T22:41:45.908Z,100832.80
2019-05-10T22:44:17.227Z,100839.41
2019-05-10T22:46:48.454Z,100835.39
2019-05-10T22:49:19.752Z,100837.13
2019-05-10T22:51:51.144Z,100840.18
2019-05-10T22:54:22.449Z,100837.93
2019-05-10T22:56:53.715Z,100844.55
2019-05-10T22:59:25.080Z,100840.94
2019-05-10T23:01:56.444Z,100840.94
2019-05-10T23:04:27.696Z,100839.53
2019-05-10T23:06:58.930Z,100840.38
2019-05-10T23:09:30.229Z,100844.25
2019-05-10T23:12:01.540Z,100852.53
2019-05-10T23:14:32.771Z,100854.67
2019-05-10T23:17:04.130Z,100847.10
2019-05-10T23:19:35.357Z,100850.60
2019-05-10T23:22:06.628Z,100844.35
2019-05-10T23:24:39.323Z,100850.00
2019-05-10T23:27:10.630Z,100848.21
2019-05-10T23:29:41.984Z,100838.00
2019-05-10T23:32:13.254Z,100830.37
2019-05-10T23:34:44.566Z,100832.00
2019-05-10T23:37:15.858Z,100828.36
2019-05-10T23:39:47.100Z,100833.59
2019-05-10T23:42:18.383Z,100840.50
2019-05-10T23:44:49.706Z,100831.52
2019-05-10T23:47:20.974Z,100830.59
2019-05-10T23:49:52.262Z,100827.33
2019-05-10T23:52:23.634Z,100830.73
2019-05-10T23:54:54.866Z,100832.86
2019-05-10T23:57:26.107Z,100834.89
2019-05-10T23:59:57.465Z,100823.22
